Saint Joseph, Iowa
Current Conditions -  °F | °C
As of 9:55 AM on Friday 28 Nov 2014 (Local Time) from KAXA Reporting Station
Clear Clear  
Wind Chill:   Ceiling: Unl
Heat Index: 19°   Visibility: 10mi
Dew Point: 16°   Wind: 17mph
Humidity: 86%   Direction: 150°SSE
Pressure: 29.9"   Gusts: NA
Location:  42.8572°N, 94.2676°W
Report Text: KAXA 281555Z AUTO 15015KT 10SM CLR M07/M09 A2990 RMK AO2
Loading
Personal Weather Stations






























Interactive Weather Map New forecast layout! Learn more

10-Day Weather Forecast

Advertisements
Track Severe Weather on mobile